< < Back
Terminal Aerodrome Forecast


Current Version              Previous Versions:   1  2  3  4  5  6  7  8  9  

Terminal Aerodrome Forecast

505
FTUS42 KGSP 290500
TAFCLT
TAF
KCLT 290521Z 2906/3006 35006KT P6SM BKN090
     FM290900 36004KT P6SM FEW250
     FM291800 35005KT P6SM FEW060=

Latest METAR

653
SAUS70 KWBC 291756
MTRCLT
METAR KCLT 291752Z 00000KT 10SM SCT080 26/12 A2997 RMK AO2 SLP142
T02560122 10272 20200 58006


USA.gov is the U.S. government's official web portal to all federal, state and local government web resources and services.